createdAt,value
2022-10-26T00:01:10.657Z,11
2022-10-26T00:02:25.000Z,11.1
2022-10-26T00:03:41.000Z,11.1
2022-10-26T00:04:57.000Z,11.1
2022-10-26T00:06:14.000Z,11.1
2022-10-26T00:07:30.000Z,11.1
2022-10-26T00:08:46.000Z,11.1
2022-10-26T00:10:02.000Z,11.1
2022-10-26T00:11:18.000Z,11.2
2022-10-26T00:12:34.000Z,11.2
2022-10-26T00:13:50.000Z,11.2
2022-10-26T00:15:07.000Z,11.2
2022-10-26T00:16:23.000Z,11.2
2022-10-26T00:17:39.000Z,11.2
2022-10-26T00:18:54.727Z,11.2
2022-10-26T00:20:10.886Z,11.2
2022-10-26T00:21:26.000Z,11.3
2022-10-26T00:22:42.000Z,11.3
2022-10-26T00:23:59.000Z,11.3
2022-10-26T00:25:15.000Z,11.3
2022-10-26T00:26:31.598Z,11.3
2022-10-26T00:27:47.764Z,11.4
2022-10-26T00:29:03.000Z,11.3
2022-10-26T00:30:19.000Z,11.3
2022-10-26T00:31:35.000Z,11.3
2022-10-26T00:32:52.000Z,11.3
2022-10-26T00:34:08.000Z,11.3
2022-10-26T00:35:23.642Z,11.3
2022-10-26T00:36:39.000Z,11.4
2022-10-26T00:37:55.930Z,11.4
2022-10-26T00:39:11.000Z,11.4
2022-10-26T00:40:27.000Z,11.4
2022-10-26T00:41:44.000Z,11.4
2022-10-26T00:42:59.000Z,11.5
2022-10-26T00:44:15.000Z,11.4
2022-10-26T00:45:31.893Z,11.5
2022-10-26T00:46:47.000Z,11.5
2022-10-26T00:48:03.000Z,11.4
2022-10-26T00:49:20.000Z,11.3
2022-10-26T00:50:36.413Z,11.3
2022-10-26T00:51:52.000Z,11.2
2022-10-26T00:53:08.000Z,11.2
2022-10-26T00:54:24.000Z,11.1
2022-10-26T00:55:40.000Z,11.1
2022-10-26T00:56:56.000Z,11.1
2022-10-26T00:58:13.000Z,11
2022-10-26T00:59:28.000Z,11
2022-10-26T01:00:44.000Z,10.9
2022-10-26T01:02:00.920Z,10.9
2022-10-26T01:03:16.865Z,10.8
2022-10-26T01:04:33.012Z,10.8
2022-10-26T01:05:49.167Z,10.8
2022-10-26T01:07:05.000Z,10.7
2022-10-26T01:08:21.463Z,10.7
2022-10-26T01:09:37.599Z,10.7
2022-10-26T01:10:53.000Z,10.7
2022-10-26T01:12:09.895Z,10.6
2022-10-26T01:13:26.027Z,10.6
2022-10-26T01:14:41.000Z,10.6
2022-10-26T01:15:57.000Z,10.6
2022-10-26T01:17:13.501Z,10.5
2022-10-26T01:18:29.000Z,10.5
2022-10-26T01:19:45.000Z,10.5
2022-10-26T01:21:01.000Z,10.5
2022-10-26T01:22:17.000Z,10.4
2022-10-26T01:23:33.000Z,10.4
2022-10-26T01:24:50.000Z,10.3
2022-10-26T01:26:06.000Z,10.3
2022-10-26T01:27:22.000Z,10.3
2022-10-26T01:28:38.795Z,10.3
2022-10-26T01:29:54.000Z,10.2
2022-10-26T01:31:10.000Z,10.2
2022-10-26T01:32:26.000Z,10.2
2022-10-26T01:33:42.000Z,10.1
2022-10-26T01:34:58.000Z,10.1
2022-10-26T01:36:14.000Z,10.1
2022-10-26T01:37:30.860Z,10.1
2022-10-26T01:38:46.000Z,10.1
2022-10-26T01:40:03.113Z,10
2022-10-26T01:41:19.000Z,10
2022-10-26T01:42:35.000Z,9.9
2022-10-26T01:43:51.000Z,9.9
2022-10-26T01:45:07.000Z,9.9
2022-10-26T01:46:23.000Z,9.9
2022-10-26T01:47:39.000Z,9.9
2022-10-26T01:48:54.000Z,10
2022-10-26T01:50:11.000Z,9.9
2022-10-26T01:51:27.452Z,9.9
2022-10-26T01:52:43.000Z,9.9
2022-10-26T01:53:59.000Z,9.9
2022-10-26T01:55:15.000Z,9.9
2022-10-26T01:56:31.000Z,9.9
2022-10-26T01:57:48.170Z,9.9
2022-10-26T01:59:04.315Z,9.8
2022-10-26T02:00:20.000Z,9.8
2022-10-26T02:01:36.000Z,9.8
2022-10-26T02:02:52.000Z,9.8
2022-10-26T02:04:08.914Z,9.8
2022-10-26T02:05:23.000Z,9.8
2022-10-26T02:06:39.000Z,9.8
2022-10-26T02:07:56.000Z,9.8
2022-10-26T02:09:12.493Z,9.8
2022-10-26T02:10:28.000Z,9.8
2022-10-26T02:11:44.000Z,9.8
2022-10-26T02:13:00.000Z,9.8
2022-10-26T02:14:16.000Z,9.8
2022-10-26T02:15:32.000Z,9.7
2022-10-26T02:16:49.000Z,9.7
2022-10-26T02:18:05.000Z,9.7
2022-10-26T02:19:21.000Z,9.7
2022-10-26T02:20:37.803Z,9.7
2022-10-26T02:21:52.000Z,9.7
2022-10-26T02:23:08.000Z,9.6
2022-10-26T02:24:25.000Z,9.6
2022-10-26T02:25:41.000Z,9.6
2022-10-26T02:26:57.542Z,9.6
2022-10-26T02:28:13.686Z,9.6
2022-10-26T02:29:29.000Z,9.6
2022-10-26T02:30:45.000Z,9.6
2022-10-26T02:32:01.000Z,9.5
2022-10-26T02:33:18.000Z,9.5
2022-10-26T02:34:34.000Z,9.5
2022-10-26T02:35:50.580Z,9.5
2022-10-26T02:37:06.000Z,9.5
2022-10-26T02:38:21.000Z,9.5
2022-10-26T02:39:37.000Z,9.5
2022-10-26T02:40:53.000Z,9.5
2022-10-26T02:42:10.305Z,9.4
2022-10-26T02:43:26.474Z,9.4
2022-10-26T02:44:42.000Z,9.4
2022-10-26T02:45:58.758Z,9.3
2022-10-26T02:47:14.000Z,9.3
2022-10-26T02:48:31.045Z,9.3
2022-10-26T02:49:47.180Z,9.3
2022-10-26T02:51:03.000Z,9.3
2022-10-26T02:52:19.000Z,9.2
2022-10-26T02:53:35.000Z,9.3
2022-10-26T02:54:50.783Z,9.3
2022-10-26T02:56:06.924Z,9.2
2022-10-26T02:57:23.069Z,9.2
2022-10-26T02:58:38.000Z,9.2
2022-10-26T02:59:55.000Z,9.2
2022-10-26T03:01:11.000Z,9.2
2022-10-26T03:02:27.000Z,9.2
2022-10-26T03:03:43.799Z,9.1
2022-10-26T03:04:59.000Z,9.1
2022-10-26T03:06:16.107Z,9.1
2022-10-26T03:07:32.000Z,9
2022-10-26T03:08:48.000Z,8.9
2022-10-26T03:10:04.000Z,8.9
2022-10-26T03:11:19.729Z,8.8
2022-10-26T03:12:35.830Z,8.8
2022-10-26T03:13:51.000Z,8.8
2022-10-26T03:15:07.000Z,8.8
2022-10-26T03:16:24.000Z,8.9
2022-10-26T03:17:40.000Z,8.8
2022-10-26T03:18:56.000Z,8.7
2022-10-26T03:20:12.000Z,8.7
2022-10-26T03:21:28.000Z,8.7
2022-10-26T03:22:44.000Z,8.8
2022-10-26T03:24:00.000Z,8.8
2022-10-26T03:25:17.298Z,8.9
2022-10-26T03:26:33.000Z,8.8
2022-10-26T03:27:48.000Z,8.7
2022-10-26T03:29:04.000Z,8.8
2022-10-26T03:30:20.000Z,8.8
2022-10-26T03:31:36.000Z,8.8
2022-10-26T03:32:52.000Z,8.8
2022-10-26T03:34:09.341Z,8.7
2022-10-26T03:35:25.000Z,8.7
2022-10-26T03:36:41.000Z,8.7
2022-10-26T03:37:57.786Z,8.6
2022-10-26T03:39:13.916Z,8.5
2022-10-26T03:40:29.000Z,8.5
2022-10-26T03:41:45.000Z,8.5
2022-10-26T03:43:02.359Z,8.5
2022-10-26T03:44:17.000Z,8.5
2022-10-26T03:45:33.000Z,8.5
2022-10-26T03:46:49.000Z,8.4
2022-10-26T03:48:05.000Z,8.4
2022-10-26T03:49:21.000Z,8.3
2022-10-26T03:50:38.000Z,8.3
2022-10-26T03:51:54.000Z,8.3
2022-10-26T03:53:10.000Z,8.3
2022-10-26T03:54:26.000Z,8.3
2022-10-26T03:55:42.000Z,8.4
2022-10-26T03:56:58.000Z,8.4
2022-10-26T03:58:14.000Z,8.4
2022-10-26T03:59:31.000Z,8.4
2022-10-26T04:00:46.448Z,8.4
2022-10-26T04:02:02.000Z,8.4
2022-10-26T04:03:18.000Z,8.3
2022-10-26T04:04:34.000Z,8.3
2022-10-26T04:05:50.000Z,8.3
2022-10-26T04:07:07.197Z,8.3
2022-10-26T04:08:23.000Z,8.3
2022-10-26T04:09:39.481Z,8.3
2022-10-26T04:10:55.000Z,8.2
2022-10-26T04:12:11.000Z,8.1
2022-10-26T04:13:27.923Z,8.1
2022-10-26T04:14:43.000Z,8.1
2022-10-26T04:16:00.212Z,8.1
2022-10-26T04:17:15.000Z,8
2022-10-26T04:18:31.000Z,8
2022-10-26T04:19:47.667Z,8
2022-10-26T04:21:03.829Z,8
2022-10-26T04:22:19.000Z,8
2022-10-26T04:23:35.000Z,8
2022-10-26T04:24:52.000Z,8
2022-10-26T04:26:08.000Z,8
2022-10-26T04:27:24.000Z,8
2022-10-26T04:28:40.701Z,8
2022-10-26T04:29:56.839Z,8
2022-10-26T04:31:12.000Z,8
2022-10-26T04:32:29.136Z,8
2022-10-26T04:33:44.000Z,8
2022-10-26T04:35:00.000Z,8
2022-10-26T04:36:16.000Z,8
2022-10-26T04:37:32.000Z,8.1
2022-10-26T04:38:48.891Z,8
2022-10-26T04:40:04.000Z,8
2022-10-26T04:41:20.000Z,8
2022-10-26T04:42:37.000Z,8
2022-10-26T04:43:53.000Z,8
2022-10-26T04:45:09.000Z,8
2022-10-26T04:46:25.000Z,8
2022-10-26T04:47:41.000Z,8
2022-10-26T04:48:57.000Z,8
2022-10-26T04:50:12.000Z,8
2022-10-26T04:51:29.369Z,8
2022-10-26T04:52:45.000Z,8.1
2022-10-26T04:54:01.667Z,8.2
2022-10-26T04:55:17.000Z,8.2
2022-10-26T04:56:33.000Z,8.2
2022-10-26T04:57:49.122Z,8.3
2022-10-26T04:59:05.271Z,8.3
2022-10-26T05:00:21.000Z,8.4
2022-10-26T05:01:37.000Z,8.4
2022-10-26T05:02:53.000Z,8.5
2022-10-26T05:04:09.000Z,8.5
2022-10-26T05:05:26.017Z,8.5
2022-10-26T05:06:42.150Z,8.6
2022-10-26T05:07:58.000Z,8.6
2022-10-26T05:09:14.456Z,8.6
2022-10-26T05:10:30.593Z,8.6
2022-10-26T05:11:46.000Z,8.6
2022-10-26T05:13:02.000Z,8.6
2022-10-26T05:14:17.000Z,8.7
2022-10-26T05:15:33.969Z,8.7
2022-10-26T05:16:50.000Z,8.7
2022-10-26T05:18:06.000Z,8.7
2022-10-26T05:19:22.000Z,8.7
2022-10-26T05:20:38.794Z,8.7
2022-10-26T05:21:54.935Z,8.7
2022-10-26T05:23:11.076Z,8.7
2022-10-26T05:24:27.000Z,8.7
2022-10-26T05:25:43.373Z,8.7
2022-10-26T05:26:59.000Z,8.7
2022-10-26T05:28:15.000Z,8.8
2022-10-26T05:29:31.000Z,8.8
2022-10-26T05:30:46.000Z,8.8
2022-10-26T05:32:03.121Z,8.8
2022-10-26T05:33:19.267Z,8.8
2022-10-26T05:34:35.000Z,8.8
2022-10-26T05:35:51.000Z,8.8
2022-10-26T05:37:07.000Z,8.8
2022-10-26T05:38:23.871Z,8.8
2022-10-26T05:39:40.005Z,8.9
2022-10-26T05:40:55.000Z,8.9
2022-10-26T05:42:12.000Z,8.8
2022-10-26T05:43:28.454Z,8.8
2022-10-26T05:44:44.000Z,8.8
2022-10-26T05:46:00.741Z,8.8
2022-10-26T05:47:15.000Z,8.8
2022-10-26T05:48:32.057Z,8.8
2022-10-26T05:49:48.203Z,8.8
2022-10-26T05:51:04.356Z,8.8
2022-10-26T05:52:20.000Z,8.8
2022-10-26T05:53:36.631Z,8.8
2022-10-26T05:54:52.000Z,8.9
2022-10-26T05:56:08.000Z,8.8
2022-10-26T05:57:24.000Z,8.8
2022-10-26T05:58:40.000Z,8.8
2022-10-26T05:59:57.368Z,8.8
2022-10-26T06:01:13.514Z,8.9
2022-10-26T06:02:29.000Z,8.9
2022-10-26T06:03:44.000Z,9
2022-10-26T06:05:00.000Z,9
2022-10-26T06:06:17.125Z,9
2022-10-26T06:07:33.000Z,9
2022-10-26T06:08:49.000Z,9
2022-10-26T06:10:05.557Z,9
2022-10-26T06:11:21.000Z,9
2022-10-26T06:12:37.000Z,8.9
2022-10-26T06:13:53.000Z,9
2022-10-26T06:15:09.000Z,8.9
2022-10-26T06:16:26.000Z,8.9
2022-10-26T06:17:42.438Z,8.9
2022-10-26T06:18:58.000Z,8.9
2022-10-26T06:20:13.000Z,8.9
2022-10-26T06:21:29.000Z,8.9
2022-10-26T06:22:45.000Z,9
2022-10-26T06:24:01.000Z,9
2022-10-26T06:25:18.000Z,9
2022-10-26T06:26:34.000Z,9
2022-10-26T06:27:50.000Z,9
2022-10-26T06:29:06.000Z,9
2022-10-26T06:30:22.925Z,9
2022-10-26T06:31:38.000Z,9
2022-10-26T06:32:55.222Z,9
2022-10-26T06:34:11.000Z,9
2022-10-26T06:35:27.000Z,9
2022-10-26T06:36:42.000Z,9
2022-10-26T06:37:58.829Z,9
2022-10-26T06:39:14.972Z,9
2022-10-26T06:40:30.000Z,9
2022-10-26T06:41:47.000Z,9
2022-10-26T06:43:03.000Z,9
2022-10-26T06:44:19.565Z,9
2022-10-26T06:45:35.730Z,9
2022-10-26T06:46:51.853Z,9
2022-10-26T06:48:07.000Z,9
2022-10-26T06:49:23.000Z,9
2022-10-26T06:50:40.000Z,9
2022-10-26T06:51:56.000Z,9
2022-10-26T06:53:11.000Z,9
2022-10-26T06:54:27.000Z,9
2022-10-26T06:55:43.894Z,9
2022-10-26T06:57:00.041Z,9
2022-10-26T06:58:16.195Z,9
2022-10-26T06:59:32.000Z,9
2022-10-26T07:00:48.000Z,9
2022-10-26T07:02:04.000Z,9
2022-10-26T07:03:20.000Z,9.1
2022-10-26T07:04:36.925Z,9.1
2022-10-26T07:05:52.000Z,9.1
2022-10-26T07:07:08.000Z,9.1
2022-10-26T07:08:25.368Z,9.1
2022-10-26T07:09:40.000Z,9.1
2022-10-26T07:10:56.000Z,9.1
2022-10-26T07:12:12.822Z,9.1
2022-10-26T07:13:28.000Z,9.1
2022-10-26T07:14:45.146Z,9
2022-10-26T07:16:01.266Z,9
2022-10-26T07:17:17.000Z,9
2022-10-26T07:18:33.000Z,8.9
2022-10-26T07:19:49.708Z,8.9
2022-10-26T07:21:05.862Z,8.8
2022-10-26T07:22:21.000Z,8.8
2022-10-26T07:23:37.000Z,8.8
2022-10-26T07:24:54.000Z,8.9
2022-10-26T07:26:09.000Z,9
2022-10-26T07:27:25.000Z,9.1
2022-10-26T07:28:41.000Z,9.2
2022-10-26T07:29:57.897Z,9.2
2022-10-26T07:31:13.000Z,9.2
2022-10-26T07:32:30.208Z,9.2
2022-10-26T07:33:46.350Z,9.2
2022-10-26T07:35:02.000Z,9.2
2022-10-26T07:36:18.000Z,9.1
2022-10-26T07:37:34.775Z,9.1
2022-10-26T07:38:50.000Z,9
2022-10-26T07:40:07.072Z,9
2022-10-26T07:41:22.000Z,9
2022-10-26T07:42:38.391Z,9.1
2022-10-26T07:43:54.000Z,9.1
2022-10-26T07:45:10.000Z,9.2
2022-10-26T07:46:26.000Z,9.2
2022-10-26T07:47:42.000Z,9.2
2022-10-26T07:48:58.000Z,9.3
2022-10-26T07:50:15.000Z,9.3
2022-10-26T07:51:31.000Z,9.4
2022-10-26T07:52:47.672Z,9.4
2022-10-26T07:54:03.000Z,9.4
2022-10-26T07:55:19.000Z,9.4
2022-10-26T07:56:35.000Z,9.5
2022-10-26T07:57:51.000Z,9.5
2022-10-26T07:59:07.306Z,9.6
2022-10-26T08:00:23.000Z,9.6
2022-10-26T08:01:39.000Z,9.6
2022-10-26T08:02:55.000Z,9.6
2022-10-26T08:04:11.000Z,9.6
2022-10-26T08:05:27.000Z,9.6
2022-10-26T08:06:43.000Z,9.6
2022-10-26T08:08:00.346Z,9.7
2022-10-26T08:09:16.000Z,9.7
2022-10-26T08:10:32.000Z,9.7
2022-10-26T08:11:48.000Z,9.8
2022-10-26T08:13:04.000Z,9.9
2022-10-26T08:14:20.000Z,9.9
2022-10-26T08:15:36.000Z,10
2022-10-26T08:16:52.000Z,10
2022-10-26T08:18:08.000Z,10.1
2022-10-26T08:19:24.000Z,10.1
2022-10-26T08:20:40.000Z,10.1
2022-10-26T08:21:56.000Z,10.2
2022-10-26T08:23:12.000Z,10.3
2022-10-26T08:24:29.277Z,10.4
2022-10-26T08:25:45.413Z,10.4
2022-10-26T08:27:01.000Z,10.5
2022-10-26T08:28:17.000Z,10.6
2022-10-26T08:29:33.856Z,10.6
2022-10-26T08:30:49.000Z,10.7
2022-10-26T08:32:04.000Z,10.7
2022-10-26T08:33:21.000Z,10.8
2022-10-26T08:34:37.000Z,10.9
2022-10-26T08:35:53.000Z,11
2022-10-26T08:37:09.000Z,11.1
2022-10-26T08:38:25.000Z,11.1
2022-10-26T08:39:41.000Z,11.2
2022-10-26T08:40:58.194Z,11.3
2022-10-26T08:42:14.000Z,11.3
2022-10-26T08:43:30.483Z,11.3
2022-10-26T08:44:46.000Z,11.4
2022-10-26T08:46:02.000Z,11.4
2022-10-26T08:47:18.000Z,11.5
2022-10-26T08:48:33.000Z,11.6
2022-10-26T08:49:50.000Z,11.6
2022-10-26T08:51:06.382Z,11.7
2022-10-26T08:52:22.000Z,11.8
2022-10-26T08:53:38.000Z,11.8
2022-10-26T08:54:54.000Z,11.9
2022-10-26T08:56:10.000Z,12
2022-10-26T08:57:26.000Z,12.1
2022-10-26T08:58:43.000Z,12.1
2022-10-26T08:59:59.000Z,12.2
2022-10-26T09:01:15.000Z,12.3
2022-10-26T09:02:31.000Z,12.4
2022-10-26T09:03:47.000Z,12.5
2022-10-26T09:05:02.000Z,12.6
2022-10-26T09:06:18.000Z,12.7
2022-10-26T09:07:35.000Z,12.8
2022-10-26T09:08:51.000Z,12.9
2022-10-26T09:10:07.608Z,13
2022-10-26T09:11:23.757Z,13.1
2022-10-26T09:12:38.000Z,13.2
2022-10-26T09:13:54.000Z,13.3
2022-10-26T09:15:11.210Z,13.5
2022-10-26T09:16:27.000Z,13.6
2022-10-26T09:17:43.000Z,13.8
2022-10-26T09:18:59.651Z,13.9
2022-10-26T09:20:15.000Z,14
2022-10-26T09:21:31.000Z,14.1
2022-10-26T09:22:47.000Z,14.2
2022-10-26T09:24:04.000Z,14.3
2022-10-26T09:25:20.000Z,14.4
2022-10-26T09:26:36.531Z,14.5
2022-10-26T09:27:52.695Z,14.6
2022-10-26T09:29:07.000Z,14.7
2022-10-26T09:30:23.991Z,14.8
2022-10-26T09:31:39.000Z,14.9
2022-10-26T09:32:56.278Z,15
2022-10-26T09:34:12.000Z,15.1
2022-10-26T09:35:28.000Z,15.2
2022-10-26T09:36:44.718Z,15.3
2022-10-26T09:38:00.000Z,15.4
2022-10-26T09:39:16.000Z,15.4
2022-10-26T09:40:32.000Z,15.5
2022-10-26T09:41:49.000Z,15.5
2022-10-26T09:43:05.000Z,15.6
2022-10-26T09:44:21.000Z,15.7
2022-10-26T09:45:36.000Z,15.9
2022-10-26T09:46:52.912Z,16.2
2022-10-26T09:48:08.000Z,16.5
2022-10-26T09:49:24.000Z,16.8
2022-10-26T09:50:41.000Z,17.1
2022-10-26T09:51:57.000Z,17.3
2022-10-26T09:53:13.000Z,17.6
2022-10-26T09:54:29.000Z,17.8
2022-10-26T09:55:45.000Z,18.1
2022-10-26T09:57:01.000Z,18.3
2022-10-26T09:58:18.000Z,18.5
2022-10-26T09:59:34.000Z,18.7
2022-10-26T10:00:50.000Z,18.8
2022-10-26T10:02:05.000Z,19
2022-10-26T10:03:21.000Z,19.2
2022-10-26T10:04:37.000Z,19.4
2022-10-26T10:05:53.000Z,19.6
2022-10-26T10:07:10.000Z,19.8
2022-10-26T10:08:26.000Z,19.9
2022-10-26T10:09:42.000Z,20.1
2022-10-26T10:10:58.000Z,20.2
2022-10-26T10:12:14.858Z,20.1
2022-10-26T10:13:31.023Z,20
2022-10-26T10:14:47.166Z,20
2022-10-26T10:16:03.000Z,20.3
2022-10-26T10:17:19.443Z,20.5
2022-10-26T10:18:34.000Z,20.7
2022-10-26T10:19:50.000Z,21
2022-10-26T10:21:06.000Z,21.2
2022-10-26T10:22:22.000Z,21.4
2022-10-26T10:23:38.000Z,21.7
2022-10-26T10:24:55.000Z,21.9
2022-10-26T10:26:11.000Z,22.1
2022-10-26T10:27:27.000Z,22.3
2022-10-26T10:28:43.000Z,22.5
2022-10-26T10:29:59.000Z,22.6
2022-10-26T10:31:15.000Z,22.7
2022-10-26T10:32:31.000Z,22.8
2022-10-26T10:33:48.369Z,22.8
2022-10-26T10:35:03.539Z,22.9
2022-10-26T10:36:19.000Z,22.9
2022-10-26T10:37:35.000Z,23
2022-10-26T10:38:51.970Z,22.9
2022-10-26T10:40:08.117Z,22.9
2022-10-26T10:41:24.000Z,22.9
2022-10-26T10:42:40.000Z,22.8
2022-10-26T10:43:56.572Z,22.6
2022-10-26T10:45:12.000Z,22.6
2022-10-26T10:46:28.855Z,22.5
2022-10-26T10:47:44.000Z,22.5
2022-10-26T10:49:01.200Z,22.6
2022-10-26T10:50:17.000Z,22.7
2022-10-26T10:51:32.000Z,22.7
2022-10-26T10:52:48.000Z,22.6
2022-10-26T10:54:04.000Z,22.6
2022-10-26T10:55:20.000Z,22.5
2022-10-26T10:56:37.040Z,22.4
2022-10-26T10:57:52.000Z,22.3
2022-10-26T10:59:09.341Z,22.2
2022-10-26T11:00:25.000Z,22.3
2022-10-26T11:01:41.000Z,22.4
2022-10-26T11:02:57.771Z,22.4
2022-10-26T11:04:13.000Z,22.3
2022-10-26T11:05:29.000Z,22.3
2022-10-26T11:06:45.000Z,22.2
2022-10-26T11:08:01.000Z,22.1
2022-10-26T11:09:17.000Z,22.1
2022-10-26T11:10:33.000Z,21.9
2022-10-26T11:11:49.825Z,21.8
2022-10-26T11:13:05.000Z,21.7
2022-10-26T11:14:21.000Z,21.7
2022-10-26T11:15:38.000Z,21.7
2022-10-26T11:16:54.406Z,21.7
2022-10-26T11:18:10.000Z,21.7
2022-10-26T11:19:26.000Z,21.8
2022-10-26T11:20:42.842Z,21.9
2022-10-26T11:21:58.000Z,22
2022-10-26T11:23:14.000Z,22.1
2022-10-26T11:24:30.000Z,22.3
2022-10-26T11:25:46.456Z,22.4
2022-10-26T11:27:02.600Z,22.6
2022-10-26T11:28:18.750Z,22.6
2022-10-26T11:29:34.000Z,22.7
2022-10-26T11:30:50.000Z,22.8
2022-10-26T11:32:06.000Z,22.9
2022-10-26T11:33:23.000Z,23
2022-10-26T11:34:39.000Z,23.1
2022-10-26T11:35:55.000Z,23.4
2022-10-26T11:37:11.000Z,23.5
2022-10-26T11:38:27.000Z,23.6
2022-10-26T11:39:43.000Z,23.7
2022-10-26T11:40:58.000Z,23.8
2022-10-26T11:42:15.000Z,23.9
2022-10-26T11:43:31.000Z,23.8
2022-10-26T11:44:47.669Z,23.6
2022-10-26T11:46:03.811Z,23.4
2022-10-26T11:47:19.000Z,23.3
2022-10-26T11:48:35.000Z,23.2
2022-10-26T11:49:51.000Z,23.1
2022-10-26T11:51:08.000Z,23
2022-10-26T11:52:24.539Z,22.9
2022-10-26T11:53:40.000Z,22.9
2022-10-26T11:54:56.000Z,22.8
2022-10-26T11:56:12.000Z,22.8
2022-10-26T11:57:27.000Z,22.8
2022-10-26T11:58:44.000Z,22.9
2022-10-26T12:00:00.000Z,23
2022-10-26T12:01:16.000Z,23.1
2022-10-26T12:02:32.000Z,23.2
2022-10-26T12:03:48.000Z,23.2
2022-10-26T12:05:05.028Z,23.3
2022-10-26T12:06:20.000Z,23.5
2022-10-26T12:07:37.000Z,23.5
2022-10-26T12:08:53.000Z,23.4
2022-10-26T12:10:09.000Z,23.3
2022-10-26T12:11:25.000Z,23.2
2022-10-26T12:12:41.000Z,23
2022-10-26T12:13:56.000Z,22.9
2022-10-26T12:15:12.000Z,22.7
2022-10-26T12:16:29.000Z,22.6
2022-10-26T12:17:45.514Z,22.4
2022-10-26T12:19:01.659Z,22.4
2022-10-26T12:20:17.572Z,22.3
2022-10-26T12:21:33.000Z,22.3
2022-10-26T12:22:50.099Z,22.2
2022-10-26T12:24:06.000Z,22.1
2022-10-26T12:25:22.000Z,22
2022-10-26T12:26:38.000Z,22
2022-10-26T12:27:54.693Z,22
2022-10-26T12:29:10.000Z,22
2022-10-26T12:30:26.010Z,22.1
2022-10-26T12:31:41.000Z,22.3
2022-10-26T12:32:58.000Z,22.4
2022-10-26T12:34:14.000Z,22.4
2022-10-26T12:35:30.000Z,22.3
2022-10-26T12:36:46.000Z,22.3
2022-10-26T12:38:02.000Z,22.3
2022-10-26T12:39:18.000Z,22.2
2022-10-26T12:40:35.172Z,22.2
2022-10-26T12:41:51.000Z,22.1
2022-10-26T12:43:07.000Z,22
2022-10-26T12:44:23.000Z,21.9
2022-10-26T12:45:39.000Z,21.9
2022-10-26T12:46:54.000Z,21.8
2022-10-26T12:48:10.000Z,21.7
2022-10-26T12:49:26.000Z,21.7
2022-10-26T12:50:43.369Z,21.6
2022-10-26T12:51:59.000Z,21.5
2022-10-26T12:53:15.000Z,21.5
2022-10-26T12:54:31.000Z,21.4
2022-10-26T12:55:47.000Z,21.3
2022-10-26T12:57:03.000Z,21.3
2022-10-26T12:58:20.230Z,21.2
2022-10-26T12:59:36.000Z,21.2
2022-10-26T13:00:52.000Z,21.1
2022-10-26T13:02:08.000Z,21.1
2022-10-26T13:03:23.000Z,21.1
2022-10-26T13:04:39.000Z,21.1
2022-10-26T13:05:55.000Z,21.1
2022-10-26T13:07:12.000Z,21.1
2022-10-26T13:08:28.000Z,21.1
2022-10-26T13:09:44.000Z,21.1
2022-10-26T13:11:00.000Z,21
2022-10-26T13:12:16.000Z,21
2022-10-26T13:13:32.992Z,21
2022-10-26T13:14:49.135Z,21
2022-10-26T13:16:05.000Z,21
2022-10-26T13:17:21.000Z,21
2022-10-26T13:18:37.000Z,21
2022-10-26T13:19:52.000Z,21
2022-10-26T13:21:08.000Z,21
2022-10-26T13:22:24.000Z,21
2022-10-26T13:23:40.000Z,21.1
2022-10-26T13:24:57.000Z,21.1
2022-10-26T13:26:13.000Z,21.2
2022-10-26T13:27:28.000Z,21.2
2022-10-26T13:28:44.000Z,21.3
2022-10-26T13:30:00.000Z,21.3
2022-10-26T13:31:16.000Z,21.4
2022-10-26T13:32:32.000Z,21.4
2022-10-26T13:33:49.000Z,21.4
2022-10-26T13:35:05.502Z,21.4
2022-10-26T13:36:21.000Z,21.4
2022-10-26T13:37:37.000Z,21.4
2022-10-26T13:38:53.000Z,21.3
2022-10-26T13:40:09.000Z,21.3
2022-10-26T13:41:26.231Z,21.3
2022-10-26T13:42:42.000Z,21.2
2022-10-26T13:43:57.000Z,21.2
2022-10-26T13:45:13.702Z,21.1
2022-10-26T13:46:29.000Z,21.1
2022-10-26T13:47:45.000Z,21.1
2022-10-26T13:49:01.000Z,21.1
2022-10-26T13:50:18.000Z,21
2022-10-26T13:51:34.000Z,21
2022-10-26T13:52:50.000Z,21
2022-10-26T13:54:06.000Z,21
2022-10-26T13:55:22.000Z,20.9
2022-10-26T13:56:38.996Z,20.9
2022-10-26T13:57:54.000Z,20.8
2022-10-26T13:59:11.000Z,20.7
2022-10-26T14:00:26.000Z,20.7
2022-10-26T14:01:42.000Z,20.6
2022-10-26T14:02:58.000Z,20.5
2022-10-26T14:04:14.000Z,20.4
2022-10-26T14:05:30.000Z,20.3
2022-10-26T14:06:46.000Z,20.2
2022-10-26T14:08:03.000Z,20.1
2022-10-26T14:09:19.481Z,20
2022-10-26T14:10:35.000Z,19.9
2022-10-26T14:11:51.000Z,19.9
2022-10-26T14:13:07.902Z,19.8
2022-10-26T14:14:23.000Z,19.7
2022-10-26T14:15:39.000Z,19.6
2022-10-26T14:16:55.000Z,19.5
2022-10-26T14:18:11.000Z,19.5
2022-10-26T14:19:27.000Z,19.4
2022-10-26T14:20:43.000Z,19.4
2022-10-26T14:21:59.000Z,19.3
2022-10-26T14:23:15.000Z,19.3
2022-10-26T14:24:32.000Z,19.2
2022-10-26T14:25:48.000Z,19.2
2022-10-26T14:27:04.000Z,19.2
2022-10-26T14:28:20.679Z,19.1
2022-10-26T14:29:36.000Z,19.1
2022-10-26T14:30:52.000Z,19
2022-10-26T14:32:09.097Z,19
2022-10-26T14:33:24.000Z,18.9
2022-10-26T14:34:40.401Z,18.9
2022-10-26T14:35:56.000Z,18.8
2022-10-26T14:37:12.000Z,18.8
2022-10-26T14:38:28.000Z,18.7
2022-10-26T14:39:44.000Z,18.6
2022-10-26T14:41:01.141Z,18.6
2022-10-26T14:42:17.282Z,18.5
2022-10-26T14:43:33.434Z,18.4
2022-10-26T14:44:49.564Z,18.4
2022-10-26T14:46:05.000Z,18.3
2022-10-26T14:47:21.000Z,18.3
2022-10-26T14:48:37.000Z,18.2
2022-10-26T14:49:52.000Z,18.2
2022-10-26T14:51:09.000Z,18.2
2022-10-26T14:52:25.000Z,18.1
2022-10-26T14:53:41.000Z,18
2022-10-26T14:54:57.000Z,17.9
2022-10-26T14:56:13.000Z,17.8
2022-10-26T14:57:30.039Z,17.8
2022-10-26T14:58:45.000Z,17.8
2022-10-26T15:00:02.000Z,17.8
2022-10-26T15:01:18.000Z,17.8
2022-10-26T15:02:34.000Z,17.7
2022-10-26T15:03:50.778Z,17.7
2022-10-26T15:05:06.000Z,17.7
2022-10-26T15:06:21.000Z,17.6
2022-10-26T15:07:37.000Z,17.6
2022-10-26T15:08:54.000Z,17.5
2022-10-26T15:10:10.000Z,17.5
2022-10-26T15:11:26.000Z,17.4
2022-10-26T15:12:42.801Z,17.4
2022-10-26T15:13:58.000Z,17.4
2022-10-26T15:15:15.101Z,17.4
2022-10-26T15:16:31.234Z,17.4
2022-10-26T15:17:47.000Z,17.4
2022-10-26T15:19:03.000Z,17.4
2022-10-26T15:20:19.000Z,17.4
2022-10-26T15:21:35.000Z,17.4
2022-10-26T15:22:50.000Z,17.3
2022-10-26T15:24:07.132Z,17.3
2022-10-26T15:25:23.000Z,17.3
2022-10-26T15:26:39.000Z,17.3
2022-10-26T15:27:55.000Z,17.3
2022-10-26T15:29:11.000Z,17.2
2022-10-26T15:30:27.000Z,17.2
2022-10-26T15:31:44.000Z,17.1
2022-10-26T15:33:00.142Z,17
2022-10-26T15:34:16.000Z,17
2022-10-26T15:35:32.000Z,16.9
2022-10-26T15:36:48.000Z,16.9
2022-10-26T15:38:04.000Z,16.9
2022-10-26T15:39:19.000Z,16.9
2022-10-26T15:40:35.000Z,16.9
2022-10-26T15:41:51.000Z,16.9
2022-10-26T15:43:08.000Z,16.8
2022-10-26T15:44:24.000Z,16.8
2022-10-26T15:45:40.617Z,16.8
2022-10-26T15:46:56.000Z,16.8
2022-10-26T15:48:12.000Z,16.7
2022-10-26T15:49:28.000Z,16.6
2022-10-26T15:50:44.000Z,16.6
2022-10-26T15:52:01.000Z,16.6
2022-10-26T15:53:17.000Z,16.6
2022-10-26T15:54:33.000Z,16.6
2022-10-26T15:55:48.000Z,16.5
2022-10-26T15:57:04.000Z,16.5
2022-10-26T15:58:20.000Z,16.4
2022-10-26T15:59:36.000Z,16.4
2022-10-26T16:00:53.000Z,16.4
2022-10-26T16:02:09.000Z,16.3
2022-10-26T16:03:25.000Z,16.3
2022-10-26T16:04:41.000Z,16.2
2022-10-26T16:05:57.000Z,16.1
2022-10-26T16:07:13.000Z,16
2022-10-26T16:08:30.000Z,16
2022-10-26T16:09:46.384Z,15.9
2022-10-26T16:11:02.526Z,15.9
2022-10-26T16:12:17.000Z,15.9
2022-10-26T16:13:33.000Z,15.9
2022-10-26T16:14:49.973Z,15.9
2022-10-26T16:16:05.000Z,15.8
2022-10-26T16:17:22.257Z,15.8
2022-10-26T16:18:38.000Z,15.7
2022-10-26T16:19:54.000Z,15.7
2022-10-26T16:21:10.000Z,15.6
2022-10-26T16:22:26.841Z,15.5
2022-10-26T16:23:42.000Z,15.4
2022-10-26T16:24:59.131Z,15.3
2022-10-26T16:26:15.000Z,15.3
2022-10-26T16:27:31.000Z,15.3
2022-10-26T16:28:46.000Z,15.3
2022-10-26T16:30:02.000Z,15.2
2022-10-26T16:31:18.000Z,15.2
2022-10-26T16:32:34.000Z,15.1
2022-10-26T16:33:50.000Z,15.1
2022-10-26T16:35:07.000Z,15
2022-10-26T16:36:23.000Z,15
2022-10-26T16:37:39.000Z,14.9
2022-10-26T16:38:55.759Z,14.9
2022-10-26T16:40:11.903Z,14.8
2022-10-26T16:41:27.000Z,14.8
2022-10-26T16:42:44.189Z,14.7
2022-10-26T16:44:00.000Z,14.7
2022-10-26T16:45:15.000Z,14.6
2022-10-26T16:46:31.000Z,14.6
2022-10-26T16:47:47.000Z,14.5
2022-10-26T16:49:03.000Z,14.5
2022-10-26T16:50:19.000Z,14.4
2022-10-26T16:51:36.000Z,14.3
2022-10-26T16:52:52.000Z,14.3
2022-10-26T16:54:08.510Z,14.3
2022-10-26T16:55:24.654Z,14.2
2022-10-26T16:56:40.000Z,14.2
2022-10-26T16:57:56.000Z,14.2
2022-10-26T16:59:12.000Z,14.1
2022-10-26T17:00:29.249Z,14
2022-10-26T17:01:44.000Z,14
2022-10-26T17:03:00.000Z,14
2022-10-26T17:04:16.694Z,14
2022-10-26T17:05:32.000Z,14
2022-10-26T17:06:48.000Z,14
2022-10-26T17:08:04.000Z,14
2022-10-26T17:09:21.284Z,14
2022-10-26T17:10:37.420Z,14
2022-10-26T17:11:53.000Z,14
2022-10-26T17:13:09.000Z,14
2022-10-26T17:14:25.000Z,13.9
2022-10-26T17:15:41.000Z,13.9
2022-10-26T17:16:58.161Z,13.9